createdAt,value
2018-04-06T00:02:01.343Z,10.90
2018-04-06T00:04:29.540Z,14.77
2018-04-06T00:06:57.838Z,11.25
2018-04-06T00:09:26.134Z,15.35
2018-04-06T00:11:54.538Z,10.25
2018-04-06T00:14:22.939Z,14.23
2018-04-06T00:16:51.224Z,12.43
2018-04-06T00:19:19.416Z,14.43
2018-04-06T00:21:47.916Z,14.15
2018-04-06T00:24:15.951Z,12.18
2018-04-06T00:26:44.108Z,11.50
2018-04-06T00:29:12.298Z,11.98
2018-04-06T00:31:40.696Z,11.57
2018-04-06T00:34:08.895Z,12.18
2018-04-06T00:36:37.089Z,10.23
2018-04-06T00:39:05.289Z,15.77
2018-04-06T00:41:33.468Z,11.30
2018-04-06T00:44:01.674Z,12.40
2018-04-06T00:46:29.778Z,13.65
2018-04-06T00:48:58.059Z,11.75
2018-04-06T00:51:26.359Z,14.82
2018-04-06T00:53:54.653Z,14.82
2018-04-06T00:56:22.842Z,10.20
2018-04-06T00:58:51.155Z,7.80
2018-04-06T01:01:19.549Z,7.20
2018-04-06T01:03:47.839Z,21.10
2018-04-06T01:06:15.842Z,10.20
2018-04-06T01:08:43.927Z,12.80
2018-04-06T01:11:12.023Z,22.40
2018-04-06T01:13:41.135Z,12.60
2018-04-06T01:16:09.332Z,8.32
2018-04-06T01:18:37.412Z,9.65
2018-04-06T01:21:05.715Z,10.40
2018-04-06T01:23:33.915Z,10.93
2018-04-06T01:26:02.106Z,8.85
2018-04-06T01:28:30.313Z,10.05
2018-04-06T01:30:58.486Z,7.87
2018-04-06T01:33:26.890Z,9.68
2018-04-06T01:35:55.186Z,8.55
2018-04-06T01:38:23.274Z,7.50
2018-04-06T01:40:51.569Z,9.68
2018-04-06T01:43:19.975Z,8.23
2018-04-06T01:45:48.095Z,8.65
2018-04-06T01:48:16.143Z,8.98
2018-04-06T01:50:44.346Z,13.35
2018-04-06T01:53:12.552Z,10.45
2018-04-06T01:55:40.838Z,10.80
2018-04-06T01:58:09.028Z,8.27
2018-04-06T02:00:37.144Z,11.38
2018-04-06T02:03:05.328Z,8.57
2018-04-06T02:05:33.524Z,13.15
2018-04-06T02:08:01.921Z,8.43
2018-04-06T02:10:30.260Z,7.35
2018-04-06T02:12:58.402Z,9.93
2018-04-06T02:15:26.751Z,8.35
2018-04-06T02:17:55.096Z,6.40
2018-04-06T02:20:23.509Z,12.77
2018-04-06T02:22:51.805Z,10.93
2018-04-06T02:25:20.005Z,14.60
2018-04-06T02:27:48.123Z,9.35
2018-04-06T02:30:16.277Z,13.38
2018-04-06T02:32:44.477Z,10.65
2018-04-06T02:35:12.665Z,17.52
2018-04-06T02:37:40.861Z,8.48
2018-04-06T02:40:09.068Z,12.82
2018-04-06T02:42:37.257Z,16.62
2018-04-06T02:45:05.441Z,14.70
2018-04-06T02:47:33.740Z,14.85
2018-04-06T02:50:02.141Z,16.73
2018-04-06T02:52:30.416Z,14.90
2018-04-06T02:54:58.739Z,9.52
2018-04-06T02:57:27.039Z,11.75
2018-04-06T02:59:55.438Z,15.32
2018-04-06T03:02:23.939Z,11.30
2018-04-06T03:04:52.120Z,12.85
2018-04-06T03:07:20.325Z,10.90
2018-04-06T03:09:48.380Z,12.63
2018-04-06T03:12:16.397Z,9.68
2018-04-06T03:14:44.700Z,14.70
2018-04-06T03:17:12.855Z,11.35
2018-04-06T03:19:41.099Z,18.23
2018-04-06T03:22:09.279Z,12.75
2018-04-06T03:24:37.471Z,11.68
2018-04-06T03:27:05.665Z,9.90
2018-04-06T03:29:34.703Z,9.75
2018-04-06T03:32:02.991Z,11.57
2018-04-06T03:34:31.170Z,16.27
2018-04-06T03:36:59.475Z,13.60
2018-04-06T03:39:27.769Z,10.40
2018-04-06T03:41:56.177Z,11.98
2018-04-06T03:44:24.570Z,12.25
2018-04-06T03:46:53.880Z,13.65
2018-04-06T03:49:21.927Z,9.50
2018-04-06T03:51:50.177Z,5.68
2018-04-06T03:54:18.202Z,8.07
2018-04-06T03:56:46.468Z,8.52
2018-04-06T03:59:14.665Z,6.12
2018-04-06T04:01:42.850Z,6.47
2018-04-06T04:04:10.937Z,9.77
2018-04-06T04:06:39.147Z,9.18
2018-04-06T04:09:07.540Z,6.45
2018-04-06T04:11:35.826Z,8.73
2018-04-06T04:14:04.136Z,8.82
2018-04-06T04:16:32.522Z,6.35
2018-04-06T04:19:00.816Z,7.65
2018-04-06T04:21:30.356Z,5.07
2018-04-06T04:23:58.642Z,4.10
2018-04-06T04:26:26.976Z,5.80
2018-04-06T04:28:55.037Z,5.10
2018-04-06T04:31:23.259Z,8.93
2018-04-06T04:33:51.424Z,5.72
2018-04-06T04:36:19.571Z,9.43
2018-04-06T04:38:47.703Z,8.40
2018-04-06T04:41:15.896Z,6.55
2018-04-06T04:43:44.006Z,7.05
2018-04-06T04:46:12.181Z,10.98
2018-04-06T04:48:40.443Z,9.20
2018-04-06T04:51:08.671Z,11.48
2018-04-06T04:53:36.968Z,7.57
2018-04-06T04:56:05.278Z,13.40
2018-04-06T04:58:33.660Z,9.10
2018-04-06T05:01:01.957Z,7.32
2018-04-06T05:03:30.263Z,8.50
2018-04-06T05:05:58.777Z,9.90
2018-04-06T05:08:27.744Z,7.30
2018-04-06T05:10:55.979Z,6.95
2018-04-06T05:13:24.163Z,7.75
2018-04-06T05:15:52.497Z,20.92
2018-04-06T05:18:20.564Z,9.18
2018-04-06T05:20:48.781Z,11.35
2018-04-06T05:23:17.159Z,9.88
2018-04-06T05:25:45.342Z,11.57
2018-04-06T05:28:13.444Z,5.87
2018-04-06T05:30:41.637Z,6.55
2018-04-06T05:33:09.830Z,9.18
2018-04-06T05:35:38.027Z,7.15
2018-04-06T05:38:06.317Z,7.07
2018-04-06T05:40:34.509Z,7.68
2018-04-06T05:43:02.817Z,9.93
2018-04-06T05:45:31.204Z,7.43
2018-04-06T05:47:59.507Z,11.43
2018-04-06T05:50:27.498Z,9.93
2018-04-06T05:52:55.692Z,6.18
2018-04-06T05:55:23.882Z,7.60
2018-04-06T05:57:52.070Z,8.40
2018-04-06T06:00:20.278Z,7.47
2018-04-06T06:02:48.454Z,7.22
2018-04-06T06:05:16.562Z,6.00
2018-04-06T06:07:44.752Z,6.00
2018-04-06T06:10:12.948Z,5.03
2018-04-06T06:12:41.141Z,8.30
2018-04-06T06:15:09.444Z,5.97
2018-04-06T06:17:37.733Z,6.10
2018-04-06T06:20:06.028Z,6.43
2018-04-06T06:22:34.328Z,3.85
2018-04-06T06:25:02.718Z,4.70
2018-04-06T06:27:31.015Z,8.32
2018-04-06T06:29:59.415Z,4.85
2018-04-06T06:32:27.498Z,4.57
2018-04-06T06:34:55.728Z,4.35
2018-04-06T06:37:23.896Z,5.43
2018-04-06T06:39:52.089Z,5.53
2018-04-06T06:42:20.404Z,4.03
2018-04-06T06:44:48.482Z,3.83
2018-04-06T06:47:16.680Z,3.45
2018-04-06T06:49:44.771Z,6.78
2018-04-06T06:52:12.967Z,5.82
2018-04-06T06:54:41.253Z,4.45
2018-04-06T06:57:09.453Z,4.28
2018-04-06T06:59:37.854Z,4.05
2018-04-06T07:02:06.076Z,4.35
2018-04-06T07:04:34.235Z,5.47
2018-04-06T07:07:02.649Z,4.32
2018-04-06T07:09:30.933Z,5.05
2018-04-06T07:11:59.033Z,5.87
2018-04-06T07:14:27.148Z,4.68
2018-04-06T07:16:55.414Z,4.68
2018-04-06T07:19:23.518Z,4.25
2018-04-06T07:21:51.695Z,4.32
2018-04-06T07:24:19.900Z,6.00
2018-04-06T07:26:48.089Z,3.75
2018-04-06T07:29:16.180Z,4.70
2018-04-06T07:31:44.372Z,3.90
2018-04-06T07:34:12.672Z,5.40
2018-04-06T07:36:40.967Z,6.82
2018-04-06T07:39:09.286Z,7.28
2018-04-06T07:41:37.565Z,3.60
2018-04-06T07:44:05.867Z,5.03
2018-04-06T07:46:34.155Z,3.90
2018-04-06T07:49:02.476Z,4.40
2018-04-06T07:51:30.648Z,5.68
2018-04-06T07:53:58.837Z,5.45
2018-04-06T07:56:26.944Z,4.20
2018-04-06T07:58:54.923Z,4.28
2018-04-06T08:01:25.068Z,4.40
2018-04-06T08:03:53.270Z,5.73
2018-04-06T08:06:21.561Z,4.80
2018-04-06T08:08:49.849Z,3.90
2018-04-06T08:11:18.141Z,3.70
2018-04-06T08:13:46.436Z,3.67
2018-04-06T08:16:14.636Z,3.60
2018-04-06T08:18:42.941Z,3.27
2018-04-06T08:21:11.144Z,3.37
2018-04-06T08:23:39.542Z,3.43
2018-04-06T08:26:08.031Z,3.10
2018-04-06T08:28:36.433Z,3.40
2018-04-06T08:31:04.725Z,3.33
2018-04-06T08:33:33.100Z,3.53
2018-04-06T08:36:01.483Z,3.17
2018-04-06T08:38:29.821Z,3.60
2018-04-06T08:40:58.122Z,2.93
2018-04-06T08:43:26.379Z,3.33
2018-04-06T08:45:54.526Z,3.03
2018-04-06T08:48:22.872Z,2.47
2018-04-06T08:50:51.046Z,2.33
2018-04-06T08:53:19.128Z,3.23
2018-04-06T08:55:47.103Z,2.67
2018-04-06T08:58:15.373Z,2.40
2018-04-06T09:00:43.683Z,2.73
2018-04-06T09:03:12.078Z,3.10
2018-04-06T09:05:40.667Z,2.40
2018-04-06T09:08:09.156Z,2.57
2018-04-06T09:10:37.730Z,3.00
2018-04-06T09:13:06.121Z,4.20
2018-04-06T09:15:34.195Z,2.80
2018-04-06T09:18:02.374Z,3.20
2018-04-06T09:20:30.480Z,4.40
2018-04-06T09:22:58.655Z,3.33
2018-04-06T09:25:26.940Z,2.90
2018-04-06T09:27:55.036Z,4.97
2018-04-06T09:30:23.125Z,3.17
2018-04-06T09:32:51.327Z,4.87
2018-04-06T09:35:19.514Z,4.90
2018-04-06T09:37:47.708Z,2.30
2018-04-06T09:40:16.002Z,2.77
2018-04-06T09:42:44.314Z,2.00
2018-04-06T09:45:12.704Z,2.10
2018-04-06T09:47:41.006Z,2.20
2018-04-06T09:50:09.306Z,1.70
2018-04-06T09:52:37.593Z,2.60
2018-04-06T09:55:05.895Z,1.50
2018-04-06T09:57:33.907Z,1.30
2018-04-06T10:00:01.979Z,2.17
2018-04-06T10:02:30.077Z,1.75
2018-04-06T10:04:58.266Z,1.35
2018-04-06T10:07:26.351Z,2.40
2018-04-06T10:09:54.547Z,1.40
2018-04-06T10:12:22.644Z,0.90
2018-04-06T10:14:50.845Z,3.28
2018-04-06T10:17:18.918Z,1.42
2018-04-06T10:19:47.222Z,1.33
2018-04-06T10:22:15.624Z,3.00
2018-04-06T10:24:43.927Z,7.07
2018-04-06T10:27:12.102Z,3.45
2018-04-06T10:29:40.404Z,1.08
2018-04-06T10:32:08.715Z,1.50
2018-04-06T10:34:38.026Z,1.70
2018-04-06T10:37:06.019Z,2.40
2018-04-06T10:39:34.107Z,3.33
2018-04-06T10:42:02.204Z,0.68
2018-04-06T10:44:30.399Z,3.10
2018-04-06T10:46:58.595Z,0.77
2018-04-06T10:49:26.788Z,0.80
2018-04-06T10:51:54.875Z,1.55
2018-04-06T10:54:23.067Z,0.80
2018-04-06T10:56:51.083Z,1.25
2018-04-06T10:59:19.249Z,0.50
2018-04-06T11:01:47.448Z,0.75
2018-04-06T11:04:15.737Z,0.95
2018-04-06T11:06:44.045Z,0.75
2018-04-06T11:09:12.251Z,0.95
2018-04-06T11:11:40.629Z,0.70
2018-04-06T11:14:08.939Z,1.83
2018-04-06T11:16:37.123Z,1.12
2018-04-06T11:19:05.319Z,4.75
2018-04-06T11:21:33.405Z,0.88
2018-04-06T11:24:01.611Z,1.20
2018-04-06T11:26:29.800Z,0.88
2018-04-06T11:28:58.005Z,1.20
2018-04-06T11:31:26.083Z,0.45
2018-04-06T11:33:54.291Z,1.25
2018-04-06T11:36:22.366Z,3.80
2018-04-06T11:38:50.571Z,1.25
2018-04-06T11:41:18.651Z,0.98
2018-04-06T11:43:46.951Z,0.43
2018-04-06T11:46:16.068Z,0.88
2018-04-06T11:48:44.371Z,1.70
2018-04-06T11:51:12.457Z,0.70
2018-04-06T11:53:40.764Z,1.40
2018-04-06T11:56:08.943Z,0.60
2018-04-06T11:58:37.141Z,1.10
2018-04-06T12:01:05.244Z,0.40
2018-04-06T12:03:33.360Z,0.88
2018-04-06T12:06:01.527Z,0.60
2018-04-06T12:08:29.713Z,0.77
2018-04-06T12:10:57.805Z,0.80
2018-04-06T12:13:27.026Z,1.83
2018-04-06T12:15:55.226Z,4.40
2018-04-06T12:18:23.532Z,1.08
2018-04-06T12:20:51.616Z,1.62
2018-04-06T12:23:19.897Z,0.65
2018-04-06T12:25:48.198Z,0.60
2018-04-06T12:28:16.394Z,0.47
2018-04-06T12:30:44.917Z,1.00
2018-04-06T12:33:13.090Z,1.98
2018-04-06T12:35:41.392Z,0.60
2018-04-06T12:38:09.587Z,0.70
2018-04-06T12:40:37.990Z,0.40
2018-04-06T12:43:06.177Z,1.70
2018-04-06T12:45:34.267Z,0.52
2018-04-06T12:48:02.405Z,1.35
2018-04-06T12:50:30.665Z,0.50
2018-04-06T12:52:58.966Z,0.85
2018-04-06T12:55:27.250Z,1.25
2018-04-06T12:57:55.341Z,7.62
2018-04-06T13:00:23.640Z,1.30
2018-04-06T13:02:51.949Z,1.65
2018-04-06T13:05:20.244Z,1.37
2018-04-06T13:07:48.532Z,2.00
2018-04-06T13:10:16.860Z,1.30
2018-04-06T13:12:45.033Z,0.75
2018-04-06T13:15:13.314Z,0.52
2018-04-06T13:17:41.416Z,0.75
2018-04-06T13:20:09.617Z,0.80
2018-04-06T13:22:37.910Z,0.97
2018-04-06T13:25:05.905Z,0.85
2018-04-06T13:27:34.087Z,0.95
2018-04-06T13:30:02.281Z,0.77
2018-04-06T13:32:30.477Z,1.60
2018-04-06T13:34:58.579Z,1.48
2018-04-06T13:37:26.860Z,2.67
2018-04-06T13:39:55.059Z,0.50
2018-04-06T13:42:23.158Z,1.20
2018-04-06T13:44:51.335Z,0.98
2018-04-06T13:47:19.640Z,1.13
2018-04-06T13:49:47.935Z,0.88
2018-04-06T13:52:16.129Z,0.52
2018-04-06T13:54:44.428Z,1.12
2018-04-06T13:57:12.525Z,0.73
2018-04-06T13:59:40.717Z,2.35
2018-04-06T14:02:08.918Z,0.82
2018-04-06T14:04:37.099Z,0.90
2018-04-06T14:07:05.324Z,1.35
2018-04-06T14:09:33.417Z,2.00
2018-04-06T14:12:01.586Z,3.63
2018-04-06T14:14:29.780Z,1.87
2018-04-06T14:16:57.863Z,1.08
2018-04-06T14:19:26.075Z,0.88
2018-04-06T14:21:54.256Z,2.03
2018-04-06T14:24:22.343Z,1.30
2018-04-06T14:26:50.449Z,1.10
2018-04-06T14:29:18.646Z,2.07
2018-04-06T14:31:46.838Z,1.90
2018-04-06T14:34:15.136Z,0.80
2018-04-06T14:36:43.333Z,0.88
2018-04-06T14:39:11.718Z,1.10
2018-04-06T14:41:39.917Z,1.30
2018-04-06T14:44:08.118Z,1.92
2018-04-06T14:46:36.301Z,2.47
2018-04-06T14:49:04.398Z,1.07
2018-04-06T14:51:32.590Z,1.30
2018-04-06T14:54:00.602Z,0.93
2018-04-06T14:56:28.781Z,3.90
2018-04-06T14:58:56.982Z,1.07
2018-04-06T15:01:25.369Z,2.17
2018-04-06T15:03:53.657Z,2.15
2018-04-06T15:06:21.967Z,1.30
2018-04-06T15:08:50.254Z,0.90
2018-04-06T15:11:18.571Z,0.70
2018-04-06T15:13:46.850Z,2.78
2018-04-06T15:16:15.559Z,0.75
2018-04-06T15:18:43.870Z,3.47
2018-04-06T15:21:12.046Z,1.20
2018-04-06T15:23:40.136Z,1.10
2018-04-06T15:26:08.337Z,1.12
2018-04-06T15:28:36.541Z,1.27
2018-04-06T15:31:04.725Z,1.10
2018-04-06T15:33:32.826Z,1.67
2018-04-06T15:36:00.937Z,2.80
2018-04-06T15:38:29.208Z,1.10
2018-04-06T15:40:57.516Z,1.10
2018-04-06T15:43:25.793Z,6.18
2018-04-06T15:45:54.205Z,1.62
2018-04-06T15:48:22.591Z,1.40
2018-04-06T15:50:50.892Z,1.70
2018-04-06T15:53:19.201Z,3.20
2018-04-06T15:55:47.593Z,2.00
2018-04-06T15:58:15.687Z,2.83
2018-04-06T16:00:43.868Z,3.90
2018-04-06T16:03:12.173Z,1.00
2018-04-06T16:05:40.375Z,2.50
2018-04-06T16:08:08.460Z,1.77
2018-04-06T16:10:36.657Z,2.87
2018-04-06T16:13:04.749Z,1.45
2018-04-06T16:15:33.799Z,3.30
2018-04-06T16:18:02.058Z,2.35
2018-04-06T16:20:30.357Z,3.00
2018-04-06T16:22:58.541Z,2.08
2018-04-06T16:25:26.848Z,1.50
2018-04-06T16:27:55.149Z,3.72
2018-04-06T16:30:23.535Z,3.05
2018-04-06T16:32:51.831Z,3.20
2018-04-06T16:35:20.050Z,3.75
2018-04-06T16:37:48.330Z,1.70
2018-04-06T16:40:16.430Z,1.48
2018-04-06T16:42:44.517Z,3.00
2018-04-06T16:45:12.718Z,1.52
2018-04-06T16:47:40.810Z,1.10
2018-04-06T16:50:09.106Z,2.00
2018-04-06T16:52:37.498Z,2.40
2018-04-06T16:55:05.684Z,1.75
2018-04-06T16:57:33.739Z,3.20
2018-04-06T17:00:02.078Z,2.72
2018-04-06T17:02:30.487Z,2.55
2018-04-06T17:04:58.675Z,2.37
2018-04-06T17:07:26.977Z,1.90
2018-04-06T17:09:55.259Z,2.17
2018-04-06T17:12:23.397Z,5.12
2018-04-06T17:14:51.751Z,5.00
2018-04-06T17:17:19.940Z,3.80
2018-04-06T17:19:48.413Z,4.25
2018-04-06T17:22:16.553Z,2.33
2018-04-06T17:24:44.634Z,2.10
2018-04-06T17:27:12.818Z,2.22
2018-04-06T17:29:41.028Z,2.87
2018-04-06T17:32:09.271Z,2.37
2018-04-06T17:34:37.516Z,7.32
2018-04-06T17:37:05.605Z,1.75
2018-04-06T17:39:33.697Z,4.10
2018-04-06T17:42:01.998Z,2.42
2018-04-06T17:44:30.391Z,4.80
2018-04-06T17:46:58.783Z,3.80
2018-04-06T17:49:27.090Z,4.32
2018-04-06T17:51:55.494Z,4.03
2018-04-06T17:54:23.889Z,3.20
2018-04-06T17:56:52.184Z,7.80
2018-04-06T17:59:20.273Z,9.85
2018-04-06T18:01:48.474Z,3.95
2018-04-06T18:04:16.658Z,7.18
2018-04-06T18:06:44.963Z,3.67
2018-04-06T18:09:13.055Z,6.07
2018-04-06T18:11:41.242Z,5.20
2018-04-06T18:14:09.344Z,8.13
2018-04-06T18:16:37.422Z,3.37
2018-04-06T18:19:06.361Z,7.47
2018-04-06T18:21:34.470Z,3.15
2018-04-06T18:24:02.635Z,6.55
2018-04-06T18:26:30.939Z,3.20
2018-04-06T18:28:59.109Z,4.78
2018-04-06T18:31:27.415Z,4.60
2018-04-06T18:33:55.503Z,4.45
2018-04-06T18:36:23.699Z,7.57
2018-04-06T18:38:51.798Z,4.97
2018-04-06T18:41:19.978Z,6.05
2018-04-06T18:43:48.079Z,5.82
2018-04-06T18:46:16.277Z,5.60
2018-04-06T18:48:44.566Z,5.43
2018-04-06T18:51:12.871Z,4.82
2018-04-06T18:53:40.960Z,4.28
2018-04-06T18:56:09.679Z,4.35
2018-04-06T18:58:37.761Z,3.45
2018-04-06T19:01:05.786Z,4.70
2018-04-06T19:03:33.936Z,6.32
2018-04-06T19:06:02.026Z,6.85
2018-04-06T19:08:30.229Z,5.78
2018-04-06T19:10:58.435Z,4.35
2018-04-06T19:13:27.015Z,6.82
2018-04-06T19:15:55.944Z,5.28
2018-04-06T19:18:24.126Z,5.47
2018-04-06T19:20:52.331Z,6.07
2018-04-06T19:23:20.528Z,3.70
2018-04-06T19:25:48.727Z,7.70
2018-04-06T19:28:17.108Z,7.18
2018-04-06T19:30:45.306Z,6.68
2018-04-06T19:33:13.605Z,7.55
2018-04-06T19:35:41.897Z,5.75
2018-04-06T19:38:10.096Z,6.10
2018-04-06T19:40:38.299Z,6.00
2018-04-06T19:43:07.303Z,5.37
2018-04-06T19:45:35.503Z,7.72
2018-04-06T19:48:03.693Z,5.82
2018-04-06T19:50:31.993Z,5.85
2018-04-06T19:53:00.174Z,6.55
2018-04-06T19:55:28.372Z,6.62
2018-04-06T19:57:56.572Z,5.75
2018-04-06T20:00:24.772Z,6.72
2018-04-06T20:02:52.952Z,6.22
2018-04-06T20:05:21.058Z,8.70
2018-04-06T20:07:49.137Z,6.15
2018-04-06T20:10:17.235Z,5.90
2018-04-06T20:12:45.436Z,6.10
2018-04-06T20:15:13.531Z,7.12
2018-04-06T20:17:41.723Z,8.40
2018-04-06T20:20:09.913Z,9.35
2018-04-06T20:22:38.109Z,8.85
2018-04-06T20:25:06.305Z,10.00
2018-04-06T20:27:34.484Z,8.07
2018-04-06T20:30:02.581Z,7.40
2018-04-06T20:32:30.777Z,6.35
2018-04-06T20:34:58.878Z,5.87
2018-04-06T20:37:27.077Z,7.87
2018-04-06T20:39:55.257Z,6.60
2018-04-06T20:42:23.357Z,12.02
2018-04-06T20:44:51.448Z,4.37
2018-04-06T20:47:19.642Z,5.60
2018-04-06T20:49:47.739Z,8.50
2018-04-06T20:52:15.830Z,6.12
2018-04-06T20:54:43.924Z,8.70
2018-04-06T20:57:12.305Z,5.25
2018-04-06T20:59:40.504Z,7.07
2018-04-06T21:02:08.605Z,5.30
2018-04-06T21:04:36.801Z,6.05
2018-04-06T21:07:04.997Z,5.43
2018-04-06T21:09:33.225Z,6.60
2018-04-06T21:12:01.284Z,7.85
2018-04-06T21:14:29.519Z,10.77
2018-04-06T21:16:57.862Z,5.20
2018-04-06T21:19:26.059Z,12.93
2018-04-06T21:21:54.256Z,6.82
2018-04-06T21:24:22.444Z,5.07
2018-04-06T21:26:50.555Z,5.80
2018-04-06T21:29:18.735Z,7.18
2018-04-06T21:31:46.822Z,9.82
2018-04-06T21:34:15.035Z,8.30
2018-04-06T21:36:43.126Z,5.50
2018-04-06T21:39:11.516Z,5.18
2018-04-06T21:41:39.918Z,5.07
2018-04-06T21:44:08.009Z,6.05
2018-04-06T21:46:36.309Z,6.05
2018-04-06T21:49:04.495Z,7.32
2018-04-06T21:51:32.581Z,9.52
2018-04-06T21:54:00.695Z,7.32
2018-04-06T21:56:28.775Z,6.50
2018-04-06T21:58:56.970Z,6.20
2018-04-06T22:01:25.161Z,5.00
2018-04-06T22:03:53.260Z,5.35
2018-04-06T22:06:21.350Z,5.22
2018-04-06T22:08:49.444Z,4.40
2018-04-06T22:11:17.541Z,7.10
2018-04-06T22:13:45.829Z,4.45
2018-04-06T22:16:13.924Z,8.98
2018-04-06T22:18:42.223Z,5.03
2018-04-06T22:21:10.421Z,5.07
2018-04-06T22:23:38.719Z,8.07
2018-04-06T22:26:06.796Z,6.22
2018-04-06T22:28:34.997Z,5.28
2018-04-06T22:31:03.099Z,5.43
2018-04-06T22:33:31.278Z,6.43
2018-04-06T22:35:59.373Z,9.82
2018-04-06T22:38:27.426Z,8.73
2018-04-06T22:40:55.565Z,5.60
2018-04-06T22:43:23.748Z,6.07
2018-04-06T22:45:51.855Z,5.90
2018-04-06T22:48:20.035Z,8.50
2018-04-06T22:50:48.236Z,6.37
2018-04-06T22:53:16.623Z,5.03
2018-04-06T22:55:45.031Z,7.62
2018-04-06T22:58:13.430Z,6.80
2018-04-06T23:00:41.721Z,6.15
2018-04-06T23:03:10.035Z,8.18
2018-04-06T23:05:38.219Z,6.55
2018-04-06T23:08:06.401Z,7.72
2018-04-06T23:10:34.499Z,8.30
2018-04-06T23:13:02.704Z,7.68
2018-04-06T23:15:30.900Z,8.13
2018-04-06T23:17:59.111Z,3.95
2018-04-06T23:20:27.083Z,4.32
2018-04-06T23:22:56.084Z,5.85
2018-04-06T23:25:24.184Z,4.28
2018-04-06T23:27:52.280Z,6.35
2018-04-06T23:30:20.461Z,4.90
2018-04-06T23:32:48.766Z,6.03
2018-04-06T23:35:17.056Z,5.57
2018-04-06T23:37:45.257Z,4.15
2018-04-06T23:40:13.559Z,6.53
2018-04-06T23:42:41.839Z,6.55
2018-04-06T23:45:09.981Z,5.22
2018-04-06T23:47:38.136Z,7.75
2018-04-06T23:50:06.335Z,5.75
2018-04-06T23:52:34.737Z,6.93
2018-04-06T23:55:02.919Z,3.40
2018-04-06T23:57:30.955Z,5.20
2018-04-06T23:59:59.102Z,4.25
